sensor_id;sensor_type;location;lat;lon;timestamp;temperature;humidity
20672;DHT22;10495;50.922;4.760;2022-12-17T00:02:25;-3.10;80.70
20672;DHT22;10495;50.922;4.760;2022-12-17T00:05:09;-3.10;81.10
20672;DHT22;10495;50.922;4.760;2022-12-17T00:07:58;-3.20;80.50
20672;DHT22;10495;50.922;4.760;2022-12-17T00:10:42;-3.20;80.70
20672;DHT22;10495;50.922;4.760;2022-12-17T00:13:26;-3.20;80.70
20672;DHT22;10495;50.922;4.760;2022-12-17T00:16:10;-3.20;80.70
20672;DHT22;10495;50.922;4.760;2022-12-17T00:18:54;-3.20;80.80
20672;DHT22;10495;50.922;4.760;2022-12-17T00:21:50;-3.20;80.90
20672;DHT22;10495;50.922;4.760;2022-12-17T00:24:34;-3.30;80.80
20672;DHT22;10495;50.922;4.760;2022-12-17T00:27:18;-3.20;80.70
20672;DHT22;10495;50.922;4.760;2022-12-17T00:30:02;-3.30;80.80
20672;DHT22;10495;50.922;4.760;2022-12-17T00:32:47;-3.30;80.70
20672;DHT22;10495;50.922;4.760;2022-12-17T00:35:31;-3.30;80.80
20672;DHT22;10495;50.922;4.760;2022-12-17T00:38:16;-3.40;81.00
20672;DHT22;10495;50.922;4.760;2022-12-17T00:41:00;-3.50;81.70
20672;DHT22;10495;50.922;4.760;2022-12-17T00:43:44;-3.40;81.90
20672;DHT22;10495;50.922;4.760;2022-12-17T00:46:28;-3.50;81.80
20672;DHT22;10495;50.922;4.760;2022-12-17T00:49:12;-3.40;82.10
20672;DHT22;10495;50.922;4.760;2022-12-17T00:51:56;-3.40;81.90
20672;DHT22;10495;50.922;4.760;2022-12-17T00:54:40;-3.40;81.70
20672;DHT22;10495;50.922;4.760;2022-12-17T00:57:24;-3.40;81.40
20672;DHT22;10495;50.922;4.760;2022-12-17T01:00:08;-3.40;80.80
20672;DHT22;10495;50.922;4.760;2022-12-17T01:02:53;-3.50;80.30
20672;DHT22;10495;50.922;4.760;2022-12-17T01:05:37;-3.50;80.20
20672;DHT22;10495;50.922;4.760;2022-12-17T01:08:21;-3.50;80.30
20672;DHT22;10495;50.922;4.760;2022-12-17T01:11:06;-3.50;80.20
20672;DHT22;10495;50.922;4.760;2022-12-17T01:13:52;-3.60;80.10
20672;DHT22;10495;50.922;4.760;2022-12-17T01:16:36;-3.60;80.50
20672;DHT22;10495;50.922;4.760;2022-12-17T01:19:21;-3.60;80.60
20672;DHT22;10495;50.922;4.760;2022-12-17T01:22:05;-3.60;80.40
20672;DHT22;10495;50.922;4.760;2022-12-17T01:24:49;-3.60;80.40
20672;DHT22;10495;50.922;4.760;2022-12-17T01:27:33;-3.60;80.40
20672;DHT22;10495;50.922;4.760;2022-12-17T01:30:17;-3.70;80.10
20672;DHT22;10495;50.922;4.760;2022-12-17T01:33:06;-3.70;80.10
20672;DHT22;10495;50.922;4.760;2022-12-17T01:35:56;-3.70;80.20
20672;DHT22;10495;50.922;4.760;2022-12-17T01:38:41;-3.90;80.10
20672;DHT22;10495;50.922;4.760;2022-12-17T01:41:25;-4.00;80.50
20672;DHT22;10495;50.922;4.760;2022-12-17T01:44:42;-4.00;81.20
20672;DHT22;10495;50.922;4.760;2022-12-17T01:50:34;-3.90;81.20
20672;DHT22;10495;50.922;4.760;2022-12-17T01:53:32;-3.90;81.00
20672;DHT22;10495;50.922;4.760;2022-12-17T01:56:17;-3.90;80.90
20672;DHT22;10495;50.922;4.760;2022-12-17T01:59:03;-3.90;80.70
20672;DHT22;10495;50.922;4.760;2022-12-17T02:01:48;-3.90;80.50
20672;DHT22;10495;50.922;4.760;2022-12-17T02:04:32;-3.90;80.30
20672;DHT22;10495;50.922;4.760;2022-12-17T02:08:02;-4.00;80.20
20672;DHT22;10495;50.922;4.760;2022-12-17T02:11:16;-3.90;80.30
20672;DHT22;10495;50.922;4.760;2022-12-17T02:14:18;-4.00;80.20
20672;DHT22;10495;50.922;4.760;2022-12-17T02:17:07;-4.00;80.10
20672;DHT22;10495;50.922;4.760;2022-12-17T02:20:10;-4.00;79.90
20672;DHT22;10495;50.922;4.760;2022-12-17T02:26:37;-4.00;80.10
20672;DHT22;10495;50.922;4.760;2022-12-17T02:29:24;-4.20;80.20
20672;DHT22;10495;50.922;4.760;2022-12-17T02:32:12;-4.10;80.40
20672;DHT22;10495;50.922;4.760;2022-12-17T02:35:02;-4.10;80.60
20672;DHT22;10495;50.922;4.760;2022-12-17T02:38:01;-4.20;80.40
20672;DHT22;10495;50.922;4.760;2022-12-17T02:40:46;-4.10;80.90
20672;DHT22;10495;50.922;4.760;2022-12-17T02:43:32;-4.10;80.10
20672;DHT22;10495;50.922;4.760;2022-12-17T02:46:18;-4.10;79.80
20672;DHT22;10495;50.922;4.760;2022-12-17T02:49:03;-4.20;79.70
20672;DHT22;10495;50.922;4.760;2022-12-17T02:51:47;-4.10;79.80
20672;DHT22;10495;50.922;4.760;2022-12-17T02:54:33;-4.20;79.60
20672;DHT22;10495;50.922;4.760;2022-12-17T02:57:18;-4.20;79.30
20672;DHT22;10495;50.922;4.760;2022-12-17T03:00:04;-4.20;79.40
20672;DHT22;10495;50.922;4.760;2022-12-17T03:02:48;-4.30;79.70
20672;DHT22;10495;50.922;4.760;2022-12-17T03:05:33;-4.30;79.70
20672;DHT22;10495;50.922;4.760;2022-12-17T03:08:16;-4.30;79.80
20672;DHT22;10495;50.922;4.760;2022-12-17T03:11:01;-4.30;79.60
20672;DHT22;10495;50.922;4.760;2022-12-17T03:13:45;-4.30;79.50
20672;DHT22;10495;50.922;4.760;2022-12-17T03:16:29;-4.30;79.50
20672;DHT22;10495;50.922;4.760;2022-12-17T03:19:13;-4.40;79.40
20672;DHT22;10495;50.922;4.760;2022-12-17T03:21:57;-4.40;79.60
20672;DHT22;10495;50.922;4.760;2022-12-17T03:24:41;-4.30;79.80
20672;DHT22;10495;50.922;4.760;2022-12-17T03:27:26;-4.30;79.40
20672;DHT22;10495;50.922;4.760;2022-12-17T03:30:10;-4.40;79.70
20672;DHT22;10495;50.922;4.760;2022-12-17T03:32:54;-4.40;79.80
20672;DHT22;10495;50.922;4.760;2022-12-17T03:35:38;-4.40;79.70
20672;DHT22;10495;50.922;4.760;2022-12-17T03:38:22;-4.40;79.60
20672;DHT22;10495;50.922;4.760;2022-12-17T03:41:06;-4.40;79.70
20672;DHT22;10495;50.922;4.760;2022-12-17T03:43:50;-4.40;79.30
20672;DHT22;10495;50.922;4.760;2022-12-17T03:46:34;-4.50;79.10
20672;DHT22;10495;50.922;4.760;2022-12-17T03:49:19;-4.50;78.80
20672;DHT22;10495;50.922;4.760;2022-12-17T03:52:03;-4.60;79.20
20672;DHT22;10495;50.922;4.760;2022-12-17T03:54:47;-4.70;78.90
20672;DHT22;10495;50.922;4.760;2022-12-17T03:57:31;-4.60;79.10
20672;DHT22;10495;50.922;4.760;2022-12-17T04:00:15;-4.70;78.50
20672;DHT22;10495;50.922;4.760;2022-12-17T04:02:59;-4.70;78.60
20672;DHT22;10495;50.922;4.760;2022-12-17T04:05:43;-4.80;79.00
20672;DHT22;10495;50.922;4.760;2022-12-17T04:08:27;-4.80;79.20
20672;DHT22;10495;50.922;4.760;2022-12-17T04:11:11;-4.70;78.70
20672;DHT22;10495;50.922;4.760;2022-12-17T04:13:55;-4.80;78.90
20672;DHT22;10495;50.922;4.760;2022-12-17T04:16:39;-4.80;79.30
20672;DHT22;10495;50.922;4.760;2022-12-17T04:19:23;-4.70;79.30
20672;DHT22;10495;50.922;4.760;2022-12-17T04:22:07;-4.70;79.00
20672;DHT22;10495;50.922;4.760;2022-12-17T04:24:51;-4.90;79.00
20672;DHT22;10495;50.922;4.760;2022-12-17T04:27:35;-4.90;79.00
20672;DHT22;10495;50.922;4.760;2022-12-17T04:30:19;-4.90;78.70
20672;DHT22;10495;50.922;4.760;2022-12-17T04:33:03;-4.90;79.30
20672;DHT22;10495;50.922;4.760;2022-12-17T04:35:47;-4.90;79.00
20672;DHT22;10495;50.922;4.760;2022-12-17T04:38:31;-5.00;78.90
20672;DHT22;10495;50.922;4.760;2022-12-17T04:41:16;-4.90;78.80
20672;DHT22;10495;50.922;4.760;2022-12-17T04:44:00;-5.00;78.90
20672;DHT22;10495;50.922;4.760;2022-12-17T04:46:44;-4.90;78.80
20672;DHT22;10495;50.922;4.760;2022-12-17T04:49:28;-4.90;78.80
20672;DHT22;10495;50.922;4.760;2022-12-17T04:52:12;-4.90;79.00
20672;DHT22;10495;50.922;4.760;2022-12-17T04:54:56;-5.00;78.70
20672;DHT22;10495;50.922;4.760;2022-12-17T04:57:40;-4.90;78.90
20672;DHT22;10495;50.922;4.760;2022-12-17T05:00:24;-4.90;78.70
20672;DHT22;10495;50.922;4.760;2022-12-17T05:03:14;-4.90;78.80
20672;DHT22;10495;50.922;4.760;2022-12-17T05:05:58;-5.00;78.70
20672;DHT22;10495;50.922;4.760;2022-12-17T05:08:42;-5.00;78.90
20672;DHT22;10495;50.922;4.760;2022-12-17T05:11:27;-5.00;78.30
20672;DHT22;10495;50.922;4.760;2022-12-17T05:14:11;-5.10;78.50
20672;DHT22;10495;50.922;4.760;2022-12-17T05:16:55;-5.10;78.80
20672;DHT22;10495;50.922;4.760;2022-12-17T05:19:39;-5.10;78.50
20672;DHT22;10495;50.922;4.760;2022-12-17T05:22:23;-5.10;78.60
20672;DHT22;10495;50.922;4.760;2022-12-17T05:25:08;-5.10;78.80
20672;DHT22;10495;50.922;4.760;2022-12-17T05:27:52;-5.10;78.90
20672;DHT22;10495;50.922;4.760;2022-12-17T05:30:36;-5.10;78.80
20672;DHT22;10495;50.922;4.760;2022-12-17T05:33:20;-5.00;78.70
20672;DHT22;10495;50.922;4.760;2022-12-17T05:36:04;-5.00;78.10
20672;DHT22;10495;50.922;4.760;2022-12-17T05:38:49;-5.10;78.80
20672;DHT22;10495;50.922;4.760;2022-12-17T05:41:33;-5.10;78.90
20672;DHT22;10495;50.922;4.760;2022-12-17T05:44:25;-5.10;79.10
20672;DHT22;10495;50.922;4.760;2022-12-17T05:47:09;-5.10;79.80
20672;DHT22;10495;50.922;4.760;2022-12-17T05:49:53;-5.10;79.00
20672;DHT22;10495;50.922;4.760;2022-12-17T05:52:37;-5.10;78.80
20672;DHT22;10495;50.922;4.760;2022-12-17T05:55:22;-5.10;79.10
20672;DHT22;10495;50.922;4.760;2022-12-17T05:58:08;-5.10;79.50
20672;DHT22;10495;50.922;4.760;2022-12-17T06:01:01;-5.00;79.30
20672;DHT22;10495;50.922;4.760;2022-12-17T06:03:46;-5.10;79.20
20672;DHT22;10495;50.922;4.760;2022-12-17T06:06:31;-5.10;79.20
20672;DHT22;10495;50.922;4.760;2022-12-17T06:09:15;-5.10;79.30
20672;DHT22;10495;50.922;4.760;2022-12-17T06:11:59;-5.10;79.40
20672;DHT22;10495;50.922;4.760;2022-12-17T06:14:43;-5.10;79.40
20672;DHT22;10495;50.922;4.760;2022-12-17T06:17:27;-5.10;79.20
20672;DHT22;10495;50.922;4.760;2022-12-17T06:20:19;-4.90;78.70
20672;DHT22;10495;50.922;4.760;2022-12-17T06:23:07;-5.00;78.80
20672;DHT22;10495;50.922;4.760;2022-12-17T06:25:53;-5.00;78.90
20672;DHT22;10495;50.922;4.760;2022-12-17T06:28:39;-5.10;79.30
20672;DHT22;10495;50.922;4.760;2022-12-17T06:31:23;-5.00;79.30
20672;DHT22;10495;50.922;4.760;2022-12-17T06:34:07;-5.10;79.10
20672;DHT22;10495;50.922;4.760;2022-12-17T06:36:51;-5.10;79.10
20672;DHT22;10495;50.922;4.760;2022-12-17T06:39:36;-5.10;79.20
20672;DHT22;10495;50.922;4.760;2022-12-17T06:42:22;-5.10;79.50
20672;DHT22;10495;50.922;4.760;2022-12-17T06:45:07;-5.10;79.30
20672;DHT22;10495;50.922;4.760;2022-12-17T06:47:51;-5.10;79.30
20672;DHT22;10495;50.922;4.760;2022-12-17T06:50:36;-5.00;79.20
20672;DHT22;10495;50.922;4.760;2022-12-17T06:53:19;-5.00;79.20
20672;DHT22;10495;50.922;4.760;2022-12-17T06:56:04;-4.80;79.20
20672;DHT22;10495;50.922;4.760;2022-12-17T06:58:48;-4.70;77.90
20672;DHT22;10495;50.922;4.760;2022-12-17T07:01:32;-4.90;78.80
20672;DHT22;10495;50.922;4.760;2022-12-17T07:04:16;-5.00;79.50
20672;DHT22;10495;50.922;4.760;2022-12-17T07:07:00;-5.10;79.10
20672;DHT22;10495;50.922;4.760;2022-12-17T07:09:44;-5.10;78.90
20672;DHT22;10495;50.922;4.760;2022-12-17T07:12:29;-5.20;78.90
20672;DHT22;10495;50.922;4.760;2022-12-17T07:15:13;-5.20;79.10
20672;DHT22;10495;50.922;4.760;2022-12-17T07:17:59;-5.20;79.00
20672;DHT22;10495;50.922;4.760;2022-12-17T07:20:45;-5.20;79.10
20672;DHT22;10495;50.922;4.760;2022-12-17T07:23:29;-5.20;79.30
20672;DHT22;10495;50.922;4.760;2022-12-17T07:26:13;-5.20;78.90
20672;DHT22;10495;50.922;4.760;2022-12-17T07:28:57;-5.20;79.50
20672;DHT22;10495;50.922;4.760;2022-12-17T07:31:41;-5.20;79.20
20672;DHT22;10495;50.922;4.760;2022-12-17T07:34:25;-5.20;79.30
20672;DHT22;10495;50.922;4.760;2022-12-17T07:37:09;-5.20;79.50
20672;DHT22;10495;50.922;4.760;2022-12-17T07:39:53;-5.10;79.70
20672;DHT22;10495;50.922;4.760;2022-12-17T07:42:38;-5.10;79.90
20672;DHT22;10495;50.922;4.760;2022-12-17T07:45:23;-5.10;80.10
20672;DHT22;10495;50.922;4.760;2022-12-17T07:48:07;-5.00;80.30
20672;DHT22;10495;50.922;4.760;2022-12-17T07:50:51;-4.80;80.20
20672;DHT22;10495;50.922;4.760;2022-12-17T07:53:36;-4.90;80.40
20672;DHT22;10495;50.922;4.760;2022-12-17T07:56:20;-4.80;80.30
20672;DHT22;10495;50.922;4.760;2022-12-17T07:59:05;-4.80;80.90
20672;DHT22;10495;50.922;4.760;2022-12-17T08:01:49;-4.80;81.00
20672;DHT22;10495;50.922;4.760;2022-12-17T08:04:33;-4.80;82.10
20672;DHT22;10495;50.922;4.760;2022-12-17T08:07:17;-4.70;82.50
20672;DHT22;10495;50.922;4.760;2022-12-17T08:10:01;-4.70;82.90
20672;DHT22;10495;50.922;4.760;2022-12-17T08:12:55;-4.60;83.60
20672;DHT22;10495;50.922;4.760;2022-12-17T08:15:40;-4.30;83.10
20672;DHT22;10495;50.922;4.760;2022-12-17T08:18:24;-3.80;81.40
20672;DHT22;10495;50.922;4.760;2022-12-17T08:21:08;-3.70;81.40
20672;DHT22;10495;50.922;4.760;2022-12-17T08:23:52;-3.80;81.70
20672;DHT22;10495;50.922;4.760;2022-12-17T08:26:36;-3.70;82.60
20672;DHT22;10495;50.922;4.760;2022-12-17T08:29:20;-3.40;82.00
20672;DHT22;10495;50.922;4.760;2022-12-17T08:32:05;-3.30;82.10
20672;DHT22;10495;50.922;4.760;2022-12-17T08:34:49;-3.30;82.30
20672;DHT22;10495;50.922;4.760;2022-12-17T08:37:34;-3.20;82.60
20672;DHT22;10495;50.922;4.760;2022-12-17T08:40:18;-3.20;84.10
20672;DHT22;10495;50.922;4.760;2022-12-17T08:43:03;-3.30;84.70
20672;DHT22;10495;50.922;4.760;2022-12-17T08:45:48;-3.20;85.50
20672;DHT22;10495;50.922;4.760;2022-12-17T08:48:32;-3.00;85.30
20672;DHT22;10495;50.922;4.760;2022-12-17T08:51:16;-2.90;85.70
20672;DHT22;10495;50.922;4.760;2022-12-17T08:54:00;-2.70;84.80
20672;DHT22;10495;50.922;4.760;2022-12-17T08:57:01;-2.70;85.40
20672;DHT22;10495;50.922;4.760;2022-12-17T08:59:45;-2.40;85.00
20672;DHT22;10495;50.922;4.760;2022-12-17T09:02:29;-2.30;84.40
20672;DHT22;10495;50.922;4.760;2022-12-17T09:05:14;-2.20;84.60
20672;DHT22;10495;50.922;4.760;2022-12-17T09:08:01;-2.20;84.80
20672;DHT22;10495;50.922;4.760;2022-12-17T09:10:45;-2.30;85.40
20672;DHT22;10495;50.922;4.760;2022-12-17T09:13:30;-2.20;85.80
20672;DHT22;10495;50.922;4.760;2022-12-17T09:16:14;-2.20;86.10
20672;DHT22;10495;50.922;4.760;2022-12-17T09:18:58;-2.10;86.30
20672;DHT22;10495;50.922;4.760;2022-12-17T09:21:42;-2.00;86.60
20672;DHT22;10495;50.922;4.760;2022-12-17T09:24:27;-1.90;86.40
20672;DHT22;10495;50.922;4.760;2022-12-17T09:27:11;-1.80;86.40
20672;DHT22;10495;50.922;4.760;2022-12-17T09:29:55;-1.80;86.80
20672;DHT22;10495;50.922;4.760;2022-12-17T09:32:40;-1.70;86.30
20672;DHT22;10495;50.922;4.760;2022-12-17T09:35:24;-1.60;86.30
20672;DHT22;10495;50.922;4.760;2022-12-17T09:38:11;-1.40;87.00
20672;DHT22;10495;50.922;4.760;2022-12-17T09:41:01;-1.30;85.20
20672;DHT22;10495;50.922;4.760;2022-12-17T09:44:05;-1.40;85.70
20672;DHT22;10495;50.922;4.760;2022-12-17T09:47:01;-1.10;85.60
20672;DHT22;10495;50.922;4.760;2022-12-17T09:49:48;-0.80;83.70
20672;DHT22;10495;50.922;4.760;2022-12-17T09:52:35;-0.80;83.80
20672;DHT22;10495;50.922;4.760;2022-12-17T09:55:26;-0.70;82.50
20672;DHT22;10495;50.922;4.760;2022-12-17T09:58:20;-1.00;83.30
20672;DHT22;10495;50.922;4.760;2022-12-17T10:01:10;-1.20;85.10
20672;DHT22;10495;50.922;4.760;2022-12-17T10:03:56;-1.30;85.60
20672;DHT22;10495;50.922;4.760;2022-12-17T10:06:40;-1.30;86.10
20672;DHT22;10495;50.922;4.760;2022-12-17T10:09:26;-1.20;86.40
20672;DHT22;10495;50.922;4.760;2022-12-17T10:12:17;-1.10;86.10
20672;DHT22;10495;50.922;4.760;2022-12-17T10:15:02;-0.90;85.80
20672;DHT22;10495;50.922;4.760;2022-12-17T10:17:47;-0.90;85.70
20672;DHT22;10495;50.922;4.760;2022-12-17T10:20:56;-0.90;86.00
20672;DHT22;10495;50.922;4.760;2022-12-17T10:23:40;-0.70;86.00
20672;DHT22;10495;50.922;4.760;2022-12-17T10:26:27;-0.60;85.30
20672;DHT22;10495;50.922;4.760;2022-12-17T10:29:21;-0.70;85.60
20672;DHT22;10495;50.922;4.760;2022-12-17T10:35:00;-0.60;85.90
20672;DHT22;10495;50.922;4.760;2022-12-17T10:37:45;-0.60;85.90
20672;DHT22;10495;50.922;4.760;2022-12-17T10:40:32;-0.50;85.90
20672;DHT22;10495;50.922;4.760;2022-12-17T10:43:31;-0.50;85.80
20672;DHT22;10495;50.922;4.760;2022-12-17T10:46:27;-0.50;85.80
20672;DHT22;10495;50.922;4.760;2022-12-17T10:49:13;-0.50;86.60
20672;DHT22;10495;50.922;4.760;2022-12-17T10:52:04;-0.30;86.60
20672;DHT22;10495;50.922;4.760;2022-12-17T10:55:03;-0.30;85.80
20672;DHT22;10495;50.922;4.760;2022-12-17T10:57:49;-0.50;85.80
20672;DHT22;10495;50.922;4.760;2022-12-17T11:00:36;-0.50;86.50
20672;DHT22;10495;50.922;4.760;2022-12-17T11:06:32;0.00;85.20
20672;DHT22;10495;50.922;4.760;2022-12-17T11:12:28;0.20;82.90
20672;DHT22;10495;50.922;4.760;2022-12-17T11:15:44;0.00;83.40
20672;DHT22;10495;50.922;4.760;2022-12-17T11:21:43;0.10;83.90
20672;DHT22;10495;50.922;4.760;2022-12-17T11:24:56;0.10;83.80
20672;DHT22;10495;50.922;4.760;2022-12-17T11:27:46;0.10;84.00
20672;DHT22;10495;50.922;4.760;2022-12-17T11:30:33;0.00;84.30
20672;DHT22;10495;50.922;4.760;2022-12-17T11:33:41;0.00;84.50
20672;DHT22;10495;50.922;4.760;2022-12-17T11:36:41;0.30;84.00
20672;DHT22;10495;50.922;4.760;2022-12-17T11:43:02;0.50;83.00
20672;DHT22;10495;50.922;4.760;2022-12-17T11:46:11;0.40;83.40
20672;DHT22;10495;50.922;4.760;2022-12-17T11:49:01;0.60;82.40
20672;DHT22;10495;50.922;4.760;2022-12-17T11:54:54;0.30;84.30
20672;DHT22;10495;50.922;4.760;2022-12-17T11:57:46;0.30;84.50
20672;DHT22;10495;50.922;4.760;2022-12-17T12:00:56;0.40;84.60
20672;DHT22;10495;50.922;4.760;2022-12-17T12:03:45;0.20;85.20
20672;DHT22;10495;50.922;4.760;2022-12-17T12:09:46;0.50;84.90
20672;DHT22;10495;50.922;4.760;2022-12-17T12:16:05;0.40;85.00
20672;DHT22;10495;50.922;4.760;2022-12-17T12:22:08;0.40;86.00
20672;DHT22;10495;50.922;4.760;2022-12-17T12:31:17;0.60;85.20
20672;DHT22;10495;50.922;4.760;2022-12-17T12:34:07;0.60;85.30
20672;DHT22;10495;50.922;4.760;2022-12-17T12:36:55;0.50;85.80
20672;DHT22;10495;50.922;4.760;2022-12-17T12:39:56;0.50;85.50
20672;DHT22;10495;50.922;4.760;2022-12-17T12:45:39;0.60;86.40
20672;DHT22;10495;50.922;4.760;2022-12-17T12:51:28;0.80;85.70
20672;DHT22;10495;50.922;4.760;2022-12-17T12:57:28;0.90;83.60
20672;DHT22;10495;50.922;4.760;2022-12-17T13:03:33;1.10;83.10
20672;DHT22;10495;50.922;4.760;2022-12-17T13:06:47;0.90;81.60
20672;DHT22;10495;50.922;4.760;2022-12-17T13:11:43;1.00;81.90
20672;DHT22;10495;50.922;4.760;2022-12-17T13:14:15;0.90;81.40
20672;DHT22;10495;50.922;4.760;2022-12-17T13:19:37;0.70;81.70
20672;DHT22;10495;50.922;4.760;2022-12-17T13:24:41;1.00;80.70
20672;DHT22;10495;50.922;4.760;2022-12-17T13:33:02;0.80;80.30
20672;DHT22;10495;50.922;4.760;2022-12-17T13:35:42;0.70;80.90
20672;DHT22;10495;50.922;4.760;2022-12-17T13:38:44;0.60;81.60
20672;DHT22;10495;50.922;4.760;2022-12-17T13:41:31;0.50;81.90
20672;DHT22;10495;50.922;4.760;2022-12-17T13:46:46;0.50;82.80
20672;DHT22;10495;50.922;4.760;2022-12-17T13:49:17;0.70;82.20
20672;DHT22;10495;50.922;4.760;2022-12-17T13:51:43;0.60;82.50
20672;DHT22;10495;50.922;4.760;2022-12-17T13:54:17;0.90;81.60
20672;DHT22;10495;50.922;4.760;2022-12-17T13:56:44;0.80;80.70
20672;DHT22;10495;50.922;4.760;2022-12-17T13:59:17;0.70;81.50
20672;DHT22;10495;50.922;4.760;2022-12-17T14:01:46;0.40;82.60
20672;DHT22;10495;50.922;4.760;2022-12-17T14:04:24;0.60;82.30
20672;DHT22;10495;50.922;4.760;2022-12-17T14:06:52;0.60;81.00
20672;DHT22;10495;50.922;4.760;2022-12-17T14:09:20;0.50;82.00
20672;DHT22;10495;50.922;4.760;2022-12-17T14:11:47;0.60;81.30
20672;DHT22;10495;50.922;4.760;2022-12-17T14:14:39;0.20;82.10
20672;DHT22;10495;50.922;4.760;2022-12-17T14:17:18;0.20;83.10
20672;DHT22;10495;50.922;4.760;2022-12-17T14:19:44;0.20;82.20
20672;DHT22;10495;50.922;4.760;2022-12-17T14:22:19;0.20;82.40
20672;DHT22;10495;50.922;4.760;2022-12-17T14:24:49;0.20;82.80
20672;DHT22;10495;50.922;4.760;2022-12-17T14:27:24;0.40;82.60
20672;DHT22;10495;50.922;4.760;2022-12-17T14:29:51;0.30;82.90
20672;DHT22;10495;50.922;4.760;2022-12-17T14:32:35;0.40;82.30
20672;DHT22;10495;50.922;4.760;2022-12-17T14:35:01;0.50;81.80
20672;DHT22;10495;50.922;4.760;2022-12-17T14:37:28;0.40;82.00
20672;DHT22;10495;50.922;4.760;2022-12-17T14:40:03;0.30;82.20
20672;DHT22;10495;50.922;4.760;2022-12-17T14:42:29;0.20;82.30
20672;DHT22;10495;50.922;4.760;2022-12-17T14:45:05;0.20;83.70
20672;DHT22;10495;50.922;4.760;2022-12-17T14:47:53;0.20;83.20
20672;DHT22;10495;50.922;4.760;2022-12-17T14:50:23;0.40;82.90
20672;DHT22;10495;50.922;4.760;2022-12-17T14:52:51;0.40;82.80
20672;DHT22;10495;50.922;4.760;2022-12-17T15:00:51;0.10;83.40
20672;DHT22;10495;50.922;4.760;2022-12-17T15:05:49;0.30;83.00
20672;DHT22;10495;50.922;4.760;2022-12-17T15:08:15;0.20;83.00
20672;DHT22;10495;50.922;4.760;2022-12-17T15:10:41;0.10;83.20
20672;DHT22;10495;50.922;4.760;2022-12-17T15:13:06;0.10;83.10
20672;DHT22;10495;50.922;4.760;2022-12-17T15:15:32;0.00;83.20
20672;DHT22;10495;50.922;4.760;2022-12-17T15:17:58;0.00;83.60
20672;DHT22;10495;50.922;4.760;2022-12-17T15:20:23;0.10;83.30
20672;DHT22;10495;50.922;4.760;2022-12-17T15:22:49;0.30;82.40
20672;DHT22;10495;50.922;4.760;2022-12-17T15:25:17;0.20;82.00
20672;DHT22;10495;50.922;4.760;2022-12-17T15:27:43;0.00;82.30
20672;DHT22;10495;50.922;4.760;2022-12-17T15:30:13;-0.10;83.20
20672;DHT22;10495;50.922;4.760;2022-12-17T15:32:39;0.10;83.10
20672;DHT22;10495;50.922;4.760;2022-12-17T15:35:05;0.00;82.90
20672;DHT22;10495;50.922;4.760;2022-12-17T15:37:31;0.10;82.60
20672;DHT22;10495;50.922;4.760;2022-12-17T15:39:56;0.10;82.70
20672;DHT22;10495;50.922;4.760;2022-12-17T15:42:22;0.10;82.60
20672;DHT22;10495;50.922;4.760;2022-12-17T15:45:06;0.00;82.90
20672;DHT22;10495;50.922;4.760;2022-12-17T15:47:32;-0.10;83.60
20672;DHT22;10495;50.922;4.760;2022-12-17T15:49:58;0.00;83.60
20672;DHT22;10495;50.922;4.760;2022-12-17T15:52:23;0.00;83.60
20672;DHT22;10495;50.922;4.760;2022-12-17T15:54:49;0.00;83.80
20672;DHT22;10495;50.922;4.760;2022-12-17T15:57:15;-0.10;84.40
20672;DHT22;10495;50.922;4.760;2022-12-17T15:59:40;-0.20;84.50
20672;DHT22;10495;50.922;4.760;2022-12-17T16:02:09;-0.30;84.90
20672;DHT22;10495;50.922;4.760;2022-12-17T16:04:34;-0.30;85.10
20672;DHT22;10495;50.922;4.760;2022-12-17T16:07:02;-0.30;85.30
20672;DHT22;10495;50.922;4.760;2022-12-17T16:09:28;-0.30;84.90
20672;DHT22;10495;50.922;4.760;2022-12-17T16:11:54;-0.10;84.90
20672;DHT22;10495;50.922;4.760;2022-12-17T16:14:20;0.00;84.80
20672;DHT22;10495;50.922;4.760;2022-12-17T16:16:46;-0.10;84.40
20672;DHT22;10495;50.922;4.760;2022-12-17T16:19:11;0.00;84.20
20672;DHT22;10495;50.922;4.760;2022-12-17T16:21:37;0.00;84.00
20672;DHT22;10495;50.922;4.760;2022-12-17T16:24:03;0.10;83.80
20672;DHT22;10495;50.922;4.760;2022-12-17T16:26:28;0.00;83.70
20672;DHT22;10495;50.922;4.760;2022-12-17T16:28:56;-0.20;84.60
20672;DHT22;10495;50.922;4.760;2022-12-17T16:31:22;0.00;84.20
20672;DHT22;10495;50.922;4.760;2022-12-17T16:33:47;-0.10;84.00
20672;DHT22;10495;50.922;4.760;2022-12-17T16:36:16;-0.10;84.00
20672;DHT22;10495;50.922;4.760;2022-12-17T16:38:52;-0.20;84.00
20672;DHT22;10495;50.922;4.760;2022-12-17T16:41:19;-0.20;84.00
20672;DHT22;10495;50.922;4.760;2022-12-17T16:43:45;-0.30;84.50
20672;DHT22;10495;50.922;4.760;2022-12-17T16:46:27;-0.50;84.90
20672;DHT22;10495;50.922;4.760;2022-12-17T16:48:54;-0.60;85.20
20672;DHT22;10495;50.922;4.760;2022-12-17T16:51:22;-0.60;85.30
20672;DHT22;10495;50.922;4.760;2022-12-17T16:53:48;-0.50;85.50
20672;DHT22;10495;50.922;4.760;2022-12-17T16:56:18;-0.50;85.30
20672;DHT22;10495;50.922;4.760;2022-12-17T16:58:44;-0.30;84.70
20672;DHT22;10495;50.922;4.760;2022-12-17T17:01:11;-0.40;84.90
20672;DHT22;10495;50.922;4.760;2022-12-17T17:03:40;-0.30;85.10
20672;DHT22;10495;50.922;4.760;2022-12-17T17:06:07;-0.20;84.20
20672;DHT22;10495;50.922;4.760;2022-12-17T17:08:37;-0.30;84.00
20672;DHT22;10495;50.922;4.760;2022-12-17T17:11:10;-0.30;83.80
20672;DHT22;10495;50.922;4.760;2022-12-17T17:13:37;-0.40;83.50
20672;DHT22;10495;50.922;4.760;2022-12-17T17:16:04;-0.40;83.90
20672;DHT22;10495;50.922;4.760;2022-12-17T17:18:30;-0.40;83.80
20672;DHT22;10495;50.922;4.760;2022-12-17T17:23:45;-0.90;84.60
20672;DHT22;10495;50.922;4.760;2022-12-17T17:26:12;-1.00;85.10
20672;DHT22;10495;50.922;4.760;2022-12-17T17:28:38;-0.90;85.00
20672;DHT22;10495;50.922;4.760;2022-12-17T17:31:06;-0.80;85.00
20672;DHT22;10495;50.922;4.760;2022-12-17T17:33:35;-0.80;84.80
20672;DHT22;10495;50.922;4.760;2022-12-17T17:36:08;-0.90;84.70
20672;DHT22;10495;50.922;4.760;2022-12-17T17:38:35;-0.80;84.80
20672;DHT22;10495;50.922;4.760;2022-12-17T17:41:01;-0.90;84.50
20672;DHT22;10495;50.922;4.760;2022-12-17T17:43:30;-1.00;84.90
20672;DHT22;10495;50.922;4.760;2022-12-17T17:46:03;-1.00;84.60
20672;DHT22;10495;50.922;4.760;2022-12-17T17:48:31;-1.00;84.90
20672;DHT22;10495;50.922;4.760;2022-12-17T17:51:03;-1.10;85.10
20672;DHT22;10495;50.922;4.760;2022-12-17T17:53:29;-1.10;84.50
20672;DHT22;10495;50.922;4.760;2022-12-17T17:56:01;-0.80;83.60
20672;DHT22;10495;50.922;4.760;2022-12-17T17:58:27;-0.70;82.70
20672;DHT22;10495;50.922;4.760;2022-12-17T18:00:52;-0.90;82.50
20672;DHT22;10495;50.922;4.760;2022-12-17T18:03:18;-1.00;83.10
20672;DHT22;10495;50.922;4.760;2022-12-17T18:05:44;-1.10;83.50
20672;DHT22;10495;50.922;4.760;2022-12-17T18:08:09;-1.30;84.00
20672;DHT22;10495;50.922;4.760;2022-12-17T18:10:35;-1.20;84.10
20672;DHT22;10495;50.922;4.760;2022-12-17T18:13:00;-1.00;83.50
20672;DHT22;10495;50.922;4.760;2022-12-17T18:15:45;-1.10;83.20
20672;DHT22;10495;50.922;4.760;2022-12-17T18:18:10;-1.10;83.70
20672;DHT22;10495;50.922;4.760;2022-12-17T18:20:36;-1.10;83.40
20672;DHT22;10495;50.922;4.760;2022-12-17T18:23:02;-1.10;83.50
20672;DHT22;10495;50.922;4.760;2022-12-17T18:25:27;-1.30;83.30
20672;DHT22;10495;50.922;4.760;2022-12-17T18:27:53;-1.30;83.90